Time;durP1;ratioP1;P1;durP2;ratioP2;P2;SDS_P1;SDS_P2;PMS_P1;PMS_P2;Temp;Humidity;BMP_temperature;BMP_pressure;BME280_temperature;BME280_humidity;BME280_pressure;Samples;Min_cycle;Max_cycle;Signal;HPM_P1;HPM_P2
2021/10/21 00:00:08;;;;;;;9.80;8.80;;;14.90;99.90;;;;;;4948683;28;20207;-78
2021/10/21 00:02:38;;;;;;;9.20;8.40;;;14.80;99.90;;;;;;4969397;28;20719;-78
2021/10/21 00:05:06;;;;;;;8.53;7.83;;;14.80;99.90;;;;;;4968501;28;20654;-79
2021/10/21 00:07:33;;;;;;;8.23;7.53;;;14.70;99.90;;;;;;4957290;28;20260;-78
2021/10/21 00:10:02;;;;;;;8.93;7.90;;;14.70;99.90;;;;;;4977544;28;20200;-78
2021/10/21 00:12:29;;;;;;;8.60;7.90;;;14.70;99.90;;;;;;4954538;28;20198;-78
2021/10/21 00:14:56;;;;;;;8.90;8.00;;;14.60;99.90;;;;;;4950797;29;20206;-78
2021/10/21 00:17:24;;;;;;;8.30;7.60;;;14.60;99.90;;;;;;4968445;28;20207;-78
2021/10/21 00:19:51;;;;;;;8.13;7.33;;;14.60;99.90;;;;;;4974514;28;20543;-78
2021/10/21 00:22:18;;;;;;;9.43;7.57;;;14.60;99.90;;;;;;4969678;28;20234;-78
2021/10/21 00:24:45;;;;;;;9.67;8.27;;;14.60;99.90;;;;;;4967784;28;20237;-78
2021/10/21 00:27:12;;;;;;;9.53;7.57;;;14.50;99.90;;;;;;4950625;29;20625;-78
2021/10/21 00:29:39;;;;;;;10.03;8.13;;;14.50;99.90;;;;;;4951814;28;20206;-78
2021/10/21 00:32:06;;;;;;;14.53;9.07;;;14.40;99.90;;;;;;4950259;29;20223;-78
2021/10/21 00:34:34;;;;;;;10.17;8.83;;;14.40;99.90;;;;;;4951234;28;20680;-78
2021/10/21 00:37:01;;;;;;;9.53;8.63;;;14.40;99.90;;;;;;4950378;29;20742;-78
2021/10/21 00:39:28;;;;;;;9.47;8.57;;;14.40;99.90;;;;;;4967703;28;20672;-78
2021/10/21 00:41:54;;;;;;;9.23;8.27;;;14.30;99.90;;;;;;4967605;28;20222;-78
2021/10/21 00:44:22;;;;;;;10.00;9.00;;;14.30;99.90;;;;;;4950196;29;20312;-78
2021/10/21 00:46:49;;;;;;;9.80;8.90;;;14.30;99.90;;;;;;4969087;28;20199;-79
2021/10/21 00:49:16;;;;;;;9.60;8.70;;;14.30;99.90;;;;;;4967353;28;20200;-78
2021/10/21 00:51:44;;;;;;;12.30;9.53;;;14.20;99.90;;;;;;4968509;28;20218;-77
2021/10/21 00:54:12;;;;;;;9.77;8.90;;;14.20;99.90;;;;;;4967520;28;20199;-78
2021/10/21 00:56:39;;;;;;;10.20;9.20;;;14.20;99.90;;;;;;4947369;28;20211;-78
2021/10/21 00:59:08;;;;;;;10.70;9.57;;;14.10;99.90;;;;;;4946950;29;20675;-78
2021/10/21 01:01:36;;;;;;;9.53;8.73;;;14.10;99.90;;;;;;4948148;28;20227;-79
2021/10/21 01:04:04;;;;;;;9.33;7.87;;;14.10;99.90;;;;;;4964529;28;20234;-78
2021/10/21 01:06:31;;;;;;;9.53;7.87;;;14.10;99.90;;;;;;4947131;29;20270;-78
2021/10/21 01:09:00;;;;;;;8.10;7.30;;;14.00;99.90;;;;;;4956754;28;20187;-78
2021/10/21 01:11:28;;;;;;;9.00;8.10;;;14.00;99.90;;;;;;4962229;28;20742;-78
2021/10/21 01:13:55;;;;;;;9.93;8.93;;;14.10;99.90;;;;;;4978159;28;20197;-78
2021/10/21 01:16:21;;;;;;;9.30;8.40;;;14.10;99.90;;;;;;4946866;29;20211;-78
2021/10/21 01:18:48;;;;;;;9.03;8.23;;;14.10;99.90;;;;;;4971612;28;20261;-78
2021/10/21 01:21:17;;;;;;;9.67;8.67;;;14.10;99.90;;;;;;4946797;29;20652;-78
2021/10/21 01:23:43;;;;;;;9.67;8.77;;;14.10;99.90;;;;;;4968099;28;20754;-78
2021/10/21 01:26:12;;;;;;;10.40;9.50;;;14.10;99.90;;;;;;4950860;28;20202;-78
2021/10/21 01:28:39;;;;;;;10.07;9.10;;;14.10;99.90;;;;;;4965175;28;20672;-78
2021/10/21 01:31:07;;;;;;;10.50;9.43;;;14.00;99.90;;;;;;4963949;28;20711;-78
2021/10/21 01:33:35;;;;;;;11.53;10.43;;;14.00;99.90;;;;;;4966273;28;20257;-78
2021/10/21 01:36:02;;;;;;;10.63;9.57;;;14.00;99.90;;;;;;4969299;28;20568;-78
2021/10/21 01:38:30;;;;;;;11.07;10.03;;;14.00;99.90;;;;;;4971324;28;20264;-78
2021/10/21 01:40:57;;;;;;;10.93;9.93;;;14.00;99.90;;;;;;4963582;28;20217;-78
2021/10/21 01:43:24;;;;;;;11.90;10.70;;;14.10;99.90;;;;;;4950712;28;20280;-78
2021/10/21 01:45:52;;;;;;;11.00;9.90;;;14.10;99.90;;;;;;4946653;28;20196;-78
2021/10/21 01:48:19;;;;;;;11.20;10.20;;;14.10;99.90;;;;;;4967176;28;20194;-78
2021/10/21 01:50:46;;;;;;;10.83;9.90;;;14.10;99.90;;;;;;4964406;28;20773;-78
2021/10/21 01:53:13;;;;;;;10.37;9.33;;;14.10;99.90;;;;;;4949967;28;20609;-78
2021/10/21 01:55:43;;;;;;;10.83;9.83;;;14.20;99.90;;;;;;4953213;28;20272;-78
2021/10/21 01:58:10;;;;;;;10.73;9.83;;;14.10;99.90;;;;;;4945975;29;20618;-78
2021/10/21 02:00:37;;;;;;;10.73;9.70;;;14.10;99.90;;;;;;4950372;28;20268;-78
2021/10/21 02:03:04;;;;;;;10.57;9.60;;;14.10;99.90;;;;;;4965397;28;20676;-78
2021/10/21 02:05:31;;;;;;;10.47;9.57;;;14.20;99.90;;;;;;4965892;28;20201;-78
2021/10/21 02:07:57;;;;;;;10.83;9.83;;;14.20;99.90;;;;;;4963522;28;20627;-77
2021/10/21 02:10:24;;;;;;;11.07;9.97;;;14.20;99.90;;;;;;4947639;28;20285;-78
2021/10/21 02:12:52;;;;;;;10.93;9.83;;;14.20;99.90;;;;;;4963176;28;20265;-78
2021/10/21 02:15:19;;;;;;;9.33;8.43;;;14.20;99.90;;;;;;4969267;28;20260;-78
2021/10/21 02:17:46;;;;;;;10.30;9.40;;;14.20;99.90;;;;;;4948721;28;20254;-78
2021/10/21 02:20:14;;;;;;;9.43;8.63;;;14.20;99.90;;;;;;4966881;28;20198;-78
2021/10/21 02:22:43;;;;;;;10.93;9.97;;;14.20;99.90;;;;;;4963656;28;20209;-77
2021/10/21 02:25:12;;;;;;;11.00;9.97;;;14.30;99.90;;;;;;4948997;28;20640;-78
2021/10/21 02:27:40;;;;;;;10.60;9.60;;;14.30;99.90;;;;;;4963000;28;20210;-78
2021/10/21 02:30:10;;;;;;;11.60;10.50;;;14.20;99.90;;;;;;4962860;28;20206;-77
2021/10/21 02:32:37;;;;;;;11.50;10.20;;;14.20;99.90;;;;;;4965778;28;20671;-78
2021/10/21 02:35:05;;;;;;;10.80;9.80;;;14.20;99.90;;;;;;4965915;28;20660;-77
2021/10/21 02:37:34;;;;;;;10.77;9.80;;;14.20;99.90;;;;;;4950385;28;20222;-78
2021/10/21 02:40:01;;;;;;;11.03;10.03;;;14.20;99.90;;;;;;4965373;28;20207;-80
2021/10/21 02:42:28;;;;;;;10.67;9.67;;;14.20;99.90;;;;;;4962335;28;20225;-80
2021/10/21 02:44:54;;;;;;;11.00;10.00;;;14.20;99.90;;;;;;4947019;28;20225;-80
2021/10/21 02:47:22;;;;;;;10.73;9.83;;;14.20;99.90;;;;;;4960161;28;20205;-80
2021/10/21 02:49:49;;;;;;;11.13;10.20;;;14.30;99.90;;;;;;4963208;28;20265;-81
2021/10/21 02:52:16;;;;;;;10.63;9.63;;;14.20;99.90;;;;;;4968661;28;20225;-81
2021/10/21 02:54:43;;;;;;;10.27;9.47;;;14.30;99.90;;;;;;4971684;28;20240;-81
2021/10/21 02:57:10;;;;;;;10.43;9.53;;;14.30;99.90;;;;;;4990472;28;20259;-81
2021/10/21 02:59:37;;;;;;;10.73;9.83;;;14.30;99.90;;;;;;4948917;28;20619;-81
2021/10/21 03:02:04;;;;;;;10.77;9.87;;;14.30;99.90;;;;;;4960410;28;20223;-77
2021/10/21 03:04:32;;;;;;;10.50;9.60;;;14.30;99.90;;;;;;4963060;28;20217;-77
2021/10/21 03:06:59;;;;;;;10.57;9.67;;;14.30;99.90;;;;;;4949683;28;20261;-77
2021/10/21 03:09:25;;;;;;;9.97;9.17;;;14.40;99.90;;;;;;4951809;28;20209;-77
2021/10/21 03:11:52;;;;;;;10.47;9.57;;;14.40;99.90;;;;;;4946546;28;20265;-77
2021/10/21 03:14:19;;;;;;;9.60;8.67;;;14.50;99.90;;;;;;4968121;28;20202;-77
2021/10/21 03:16:46;;;;;;;9.33;8.50;;;14.50;99.90;;;;;;4973838;28;20206;-76
2021/10/21 03:19:13;;;;;;;9.00;8.30;;;14.60;99.90;;;;;;4947112;28;20385;-78
2021/10/21 03:21:41;;;;;;;8.50;7.80;;;14.60;99.90;;;;;;4955284;28;20649;-77
2021/10/21 03:24:07;;;;;;;8.50;7.80;;;14.70;99.90;;;;;;4963084;28;20211;-78
2021/10/21 03:26:34;;;;;;;8.30;7.70;;;14.80;99.90;;;;;;4961261;28;20204;-78
2021/10/21 03:29:01;;;;;;;7.47;6.87;;;14.80;99.90;;;;;;4944253;29;20255;-79
2021/10/21 03:31:29;;;;;;;7.13;6.53;;;14.90;99.90;;;;;;4966364;28;20215;-78
2021/10/21 03:33:56;;;;;;;8.03;7.33;;;14.90;99.90;;;;;;4945119;28;20218;-78
2021/10/21 03:36:24;;;;;;;7.70;7.00;;;14.90;99.90;;;;;;4964072;28;20729;-78
2021/10/21 03:38:52;;;;;;;7.87;7.27;;;14.90;99.90;;;;;;4962451;28;20627;-78
2021/10/21 03:41:19;;;;;;;6.63;6.07;;;14.90;99.90;;;;;;4946452;28;20306;-78
2021/10/21 03:43:46;;;;;;;7.13;6.63;;;14.80;99.90;;;;;;4951396;28;20220;-78
2021/10/21 03:46:13;;;;;;;9.17;6.53;;;14.80;99.90;;;;;;4950282;28;20206;-78
2021/10/21 03:48:39;;;;;;;6.37;5.90;;;14.70;99.90;;;;;;4947518;28;20206;-78
2021/10/21 03:51:06;;;;;;;6.70;6.20;;;14.70;99.90;;;;;;4967774;28;20227;-78
2021/10/21 03:53:33;;;;;;;5.87;5.37;;;14.60;99.90;;;;;;4962963;28;20220;-78
2021/10/21 03:56:01;;;;;;;5.40;5.00;;;14.60;99.90;;;;;;4961736;28;20211;-78
2021/10/21 03:58:28;;;;;;;6.00;5.20;;;14.60;99.90;;;;;;4944154;28;20217;-78
2021/10/21 04:00:55;;;;;;;5.00;4.60;;;14.60;99.90;;;;;;4965137;28;20279;-78
2021/10/21 04:03:21;;;;;;;5.03;4.70;;;14.50;99.90;;;;;;4961550;28;20204;-78
2021/10/21 04:05:48;;;;;;;4.30;4.00;;;14.50;99.90;;;;;;4966911;28;20253;-78
2021/10/21 04:08:15;;;;;;;4.30;4.00;;;14.50;99.90;;;;;;4948690;28;20722;-78
2021/10/21 04:10:42;;;;;;;4.47;4.07;;;14.40;99.90;;;;;;4945482;28;20769;-78
2021/10/21 04:13:11;;;;;;;4.43;4.10;;;14.40;99.90;;;;;;4947593;28;20578;-78
2021/10/21 04:15:38;;;;;;;4.23;3.93;;;14.30;99.90;;;;;;4945965;28;20204;-78
2021/10/21 04:18:05;;;;;;;4.10;3.80;;;14.30;99.90;;;;;;4961699;28;21142;-78
2021/10/21 04:20:31;;;;;;;6.80;3.77;;;14.20;99.90;;;;;;4945413;28;20367;-78
2021/10/21 04:22:58;;;;;;;3.77;3.47;;;14.20;99.90;;;;;;4950830;28;20221;-78
2021/10/21 04:25:25;;;;;;;12.00;4.00;;;14.10;99.90;;;;;;4961775;28;20262;-78
2021/10/21 04:27:52;;;;;;;3.00;2.60;;;14.00;99.90;;;;;;4966068;28;20643;-78
2021/10/21 04:30:20;;;;;;;3.27;2.93;;;14.00;99.90;;;;;;4966258;28;20194;-78
2021/10/21 04:32:47;;;;;;;3.03;2.83;;;13.90;99.90;;;;;;4948827;28;20202;-78
2021/10/21 04:35:14;;;;;;;4.93;4.00;;;13.80;99.90;;;;;;4951784;28;20229;-78
2021/10/21 04:37:41;;;;;;;4.90;3.87;;;13.80;99.90;;;;;;4950987;28;20211;-78
2021/10/21 04:40:08;;;;;;;3.83;3.53;;;13.70;99.90;;;;;;4950646;28;20210;-78
2021/10/21 04:42:36;;;;;;;4.40;4.00;;;13.70;99.90;;;;;;4964413;28;20261;-78
2021/10/21 04:45:03;;;;;;;6.13;4.50;;;13.60;99.90;;;;;;4950582;28;20223;-78
2021/10/21 04:47:31;;;;;;;4.30;4.00;;;13.60;99.90;;;;;;4947863;28;20658;-78
2021/10/21 04:49:58;;;;;;;4.77;4.37;;;13.60;99.90;;;;;;4968526;28;20690;-78
2021/10/21 04:52:25;;;;;;;3.80;3.50;;;13.60;99.90;;;;;;4968298;28;20213;-77
2021/10/21 04:54:52;;;;;;;8.33;4.10;;;13.70;99.90;;;;;;4950591;28;20197;-78
2021/10/21 04:57:19;;;;;;;6.80;4.60;;;13.70;99.90;;;;;;4968290;28;20205;-78
2021/10/21 04:59:46;;;;;;;8.83;4.47;;;13.70;99.90;;;;;;4947177;28;20206;-78
2021/10/21 05:02:12;;;;;;;5.87;4.30;;;13.70;99.90;;;;;;4969763;28;20223;-78
2021/10/21 05:04:40;;;;;;;3.97;3.57;;;13.70;99.90;;;;;;4971616;28;20210;-78
2021/10/21 05:07:07;;;;;;;5.03;4.43;;;13.60;99.90;;;;;;4951015;28;20725;-78
2021/10/21 05:09:34;;;;;;;4.30;3.90;;;13.60;99.90;;;;;;4966317;28;20190;-78
2021/10/21 05:12:01;;;;;;;11.03;4.47;;;13.50;99.90;;;;;;4950377;28;20283;-78
2021/10/21 05:14:28;;;;;;;5.50;4.10;;;13.50;99.90;;;;;;4966483;28;20194;-78
2021/10/21 05:16:56;;;;;;;4.00;3.70;;;13.40;99.90;;;;;;4954104;28;20206;-78
2021/10/21 05:19:23;;;;;;;4.80;4.20;;;13.40;99.90;;;;;;4962138;28;20282;-78
2021/10/21 05:21:52;;;;;;;7.60;4.67;;;13.20;99.90;;;;;;4983479;28;20721;-78
2021/10/21 05:24:18;;;;;;;7.40;4.63;;;13.20;99.90;;;;;;4968038;28;20222;-78
2021/10/21 05:26:45;;;;;;;5.47;4.50;;;13.10;99.90;;;;;;4964970;28;20209;-78
2021/10/21 05:29:12;;;;;;;6.60;4.50;;;13.00;99.90;;;;;;4950353;28;20676;-78
2021/10/21 05:31:39;;;;;;;7.47;4.80;;;12.90;99.90;;;;;;4947745;28;20231;-78
2021/10/21 05:34:06;;;;;;;7.50;6.90;;;12.80;99.90;;;;;;4969662;28;20210;-77
2021/10/21 05:36:33;;;;;;;8.50;7.70;;;12.80;99.90;;;;;;4972266;28;20301;-77
2021/10/21 05:39:01;;;;;;;9.30;8.37;;;12.70;99.90;;;;;;4969238;28;20200;-77
2021/10/21 05:41:28;;;;;;;8.27;7.40;;;12.70;99.90;;;;;;4949655;28;20310;-77
2021/10/21 05:43:55;;;;;;;8.53;7.30;;;12.60;99.90;;;;;;4964343;28;20204;-78
2021/10/21 05:46:22;;;;;;;8.13;7.40;;;12.60;99.90;;;;;;4971433;28;20412;-78
2021/10/21 05:48:49;;;;;;;8.10;7.50;;;12.60;99.90;;;;;;4966762;28;20262;-77
2021/10/21 05:51:16;;;;;;;9.50;7.13;;;12.60;99.90;;;;;;4965721;28;20736;-78
2021/10/21 05:53:43;;;;;;;9.60;7.70;;;12.60;99.90;;;;;;4971536;28;20208;-78
2021/10/21 05:56:11;;;;;;;8.03;7.23;;;12.60;99.90;;;;;;4952131;28;20207;-78
2021/10/21 05:58:38;;;;;;;9.57;8.60;;;12.60;99.90;;;;;;4962782;28;20215;-78
2021/10/21 06:01:05;;;;;;;9.13;8.30;;;12.60;99.90;;;;;;4946692;29;20238;-77
2021/10/21 06:03:36;;;;;;;9.00;8.20;;;12.60;99.90;;;;;;4964908;28;20207;-78
2021/10/21 06:06:04;;;;;;;9.67;8.67;;;12.60;99.90;;;;;;4948472;28;20229;-78
2021/10/21 06:08:31;;;;;;;10.20;9.00;;;12.60;99.90;;;;;;4950698;28;20644;-78
2021/10/21 06:10:58;;;;;;;12.53;9.27;;;12.60;99.90;;;;;;4965944;28;20508;-78
2021/10/21 06:13:26;;;;;;;9.63;8.93;;;12.60;99.90;;;;;;4967539;28;20205;-78
2021/10/21 06:15:53;;;;;;;10.43;9.43;;;12.60;99.90;;;;;;4949695;28;20263;-78
2021/10/21 06:18:19;;;;;;;9.87;8.97;;;12.60;99.90;;;;;;4966277;28;20212;-78
2021/10/21 06:20:46;;;;;;;10.50;9.50;;;12.60;99.90;;;;;;4970775;28;20221;-78
2021/10/21 06:23:13;;;;;;;10.30;8.70;;;12.60;99.90;;;;;;4963675;28;20212;-78
2021/10/21 06:25:40;;;;;;;9.80;7.90;;;12.70;99.90;;;;;;4967493;28;20307;-77
2021/10/21 06:28:06;;;;;;;10.77;8.50;;;12.80;99.90;;;;;;4965354;28;20669;-78
2021/10/21 06:30:35;;;;;;;9.43;8.50;;;12.80;99.90;;;;;;4948339;28;20719;-78
2021/10/21 06:33:03;;;;;;;9.50;8.47;;;12.90;99.90;;;;;;4947694;28;20206;-77
2021/10/21 06:35:30;;;;;;;9.90;8.90;;;12.90;99.90;;;;;;4959058;28;20209;-77
2021/10/21 06:37:57;;;;;;;12.03;9.13;;;12.90;99.90;;;;;;4945913;29;20201;-77
2021/10/21 06:40:24;;;;;;;11.10;7.80;;;12.90;99.90;;;;;;4952894;28;20232;-78
2021/10/21 06:42:51;;;;;;;9.10;8.17;;;13.00;99.90;;;;;;4965891;28;20686;-78
2021/10/21 06:45:18;;;;;;;9.33;8.43;;;13.00;99.90;;;;;;4966608;28;20309;-78
2021/10/21 06:47:47;;;;;;;10.00;9.03;;;13.10;99.90;;;;;;4966363;28;20211;-78
2021/10/21 06:50:14;;;;;;;10.63;9.50;;;13.10;99.90;;;;;;4966726;28;20205;-78
2021/10/21 06:52:43;;;;;;;10.30;9.40;;;13.20;99.90;;;;;;4945586;28;20276;-78
2021/10/21 06:55:12;;;;;;;15.30;9.40;;;13.10;99.90;;;;;;4964660;28;20202;-78
2021/10/21 06:57:49;;;;;;;9.23;8.33;;;13.10;99.90;;;;;;4969225;28;20200;-78
2021/10/21 07:00:16;;;;;;;12.57;9.10;;;13.20;99.90;;;;;;4968775;28;20203;-78
2021/10/21 07:02:43;;;;;;;12.73;9.73;;;13.10;99.90;;;;;;4965744;28;20247;-78
2021/10/21 07:05:12;;;;;;;13.40;9.60;;;13.20;99.90;;;;;;4966146;28;20647;-78
2021/10/21 07:07:39;;;;;;;10.57;9.20;;;13.10;99.90;;;;;;4964149;28;20259;-78
2021/10/21 07:10:08;;;;;;;9.90;8.90;;;13.10;99.90;;;;;;4964405;28;20646;-78
2021/10/21 07:12:35;;;;;;;9.90;8.80;;;13.10;99.90;;;;;;4963344;28;20281;-78
2021/10/21 07:15:03;;;;;;;10.87;9.43;;;13.10;99.90;;;;;;4949196;28;20618;-78
2021/10/21 07:17:30;;;;;;;12.57;8.57;;;13.10;99.90;;;;;;4950696;28;20665;-78
2021/10/21 07:19:56;;;;;;;9.33;8.50;;;13.30;99.90;;;;;;4965048;28;20212;-78
2021/10/21 07:22:25;;;;;;;10.10;9.20;;;13.70;99.90;;;;;;4948659;28;20233;-78
2021/10/21 07:24:52;;;;;;;10.60;9.60;;;14.00;99.90;;;;;;4965479;28;20210;-78
2021/10/21 07:27:19;;;;;;;11.90;9.50;;;14.20;99.90;;;;;;4949354;28;20202;-77
2021/10/21 07:29:46;;;;;;;10.33;9.40;;;14.60;99.90;;;;;;4947534;28;20205;-78
2021/10/21 07:32:13;;;;;;;10.63;9.53;;;14.70;99.90;;;;;;4963814;28;20690;-77
2021/10/21 07:34:42;;;;;;;10.20;9.30;;;14.50;99.90;;;;;;4966883;28;20249;-78
2021/10/21 07:37:09;;;;;;;10.47;9.40;;;14.40;99.90;;;;;;4965754;28;20208;-77
2021/10/21 07:39:37;;;;;;;9.73;8.83;;;14.20;99.90;;;;;;4952677;28;20264;-79
2021/10/21 07:42:04;;;;;;;14.13;9.47;;;14.10;99.90;;;;;;4962129;28;20257;-78
2021/10/21 07:44:31;;;;;;;10.10;9.10;;;14.00;99.90;;;;;;4968920;28;20261;-78
2021/10/21 07:46:59;;;;;;;9.90;9.00;;;14.10;99.90;;;;;;4965993;28;20205;-77
2021/10/21 07:49:25;;;;;;;10.20;9.27;;;14.10;99.90;;;;;;4950773;28;20210;-78
2021/10/21 07:51:52;;;;;;;10.03;9.07;;;14.10;99.90;;;;;;4969319;28;20219;-77
2021/10/21 07:54:19;;;;;;;9.70;9.00;;;14.10;99.90;;;;;;4963349;28;20582;-78
2021/10/21 07:56:47;;;;;;;9.20;8.60;;;14.50;99.90;;;;;;4962295;28;20195;-78
2021/10/21 07:59:14;;;;;;;9.73;8.83;;;15.20;99.90;;;;;;4944261;28;20229;-77
2021/10/21 08:01:41;;;;;;;9.37;8.33;;;15.60;99.90;;;;;;4945173;28;20280;-78
2021/10/21 08:04:09;;;;;;;10.63;8.43;;;15.40;99.90;;;;;;4963768;28;20688;-77
2021/10/21 08:06:36;;;;;;;6.80;5.30;;;15.20;99.90;;;;;;4964938;28;20256;-78
2021/10/21 08:09:03;;;;;;;8.97;8.27;;;14.90;99.90;;;;;;4969067;28;20272;-78
2021/10/21 08:11:30;;;;;;;9.50;8.77;;;14.80;99.90;;;;;;4953964;28;20779;-78
2021/10/21 08:13:58;;;;;;;9.87;8.87;;;14.60;99.90;;;;;;4969299;28;20261;-78
2021/10/21 08:16:26;;;;;;;9.43;8.70;;;14.40;99.90;;;;;;4968763;28;20273;-78
2021/10/21 08:18:53;;;;;;;9.30;8.60;;;14.30;99.90;;;;;;4965234;28;20563;-78
2021/10/21 08:21:20;;;;;;;9.60;8.70;;;14.30;99.90;;;;;;4950766;28;20283;-77
2021/10/21 08:23:50;;;;;;;9.67;8.53;;;14.20;99.90;;;;;;4948101;28;20616;-78
2021/10/21 08:26:17;;;;;;;9.13;8.37;;;14.20;99.90;;;;;;4966601;28;20313;-78
2021/10/21 08:28:46;;;;;;;9.50;8.60;;;14.20;99.90;;;;;;4965145;28;20254;-78
2021/10/21 08:31:15;;;;;;;9.67;8.97;;;14.30;99.90;;;;;;4969328;28;20233;-78
2021/10/21 08:33:42;;;;;;;9.80;8.90;;;14.50;99.90;;;;;;4967032;28;20286;-78
2021/10/21 08:36:11;;;;;;;10.17;9.30;;;14.70;99.90;;;;;;4951253;28;20202;-78
2021/10/21 08:38:38;;;;;;;9.50;8.80;;;14.70;99.90;;;;;;4967975;28;20252;-77
2021/10/21 08:41:06;;;;;;;10.50;9.13;;;14.80;99.90;;;;;;4968149;28;20268;-78
2021/10/21 08:43:34;;;;;;;9.43;8.73;;;14.80;99.90;;;;;;4964744;28;20203;-78
2021/10/21 08:46:01;;;;;;;9.30;8.50;;;14.90;99.90;;;;;;4950612;28;20226;-78
2021/10/21 08:48:31;;;;;;;9.90;9.30;;;14.90;99.90;;;;;;4952576;28;20265;-77
2021/10/21 08:50:58;;;;;;;10.10;9.37;;;14.90;99.90;;;;;;4949935;28;20220;-78
2021/10/21 08:53:26;;;;;;;9.63;8.70;;;14.80;99.90;;;;;;4967924;28;20741;-77
2021/10/21 08:55:53;;;;;;;10.20;9.20;;;14.70;99.90;;;;;;4947425;29;20246;-78
2021/10/21 08:58:21;;;;;;;9.80;9.10;;;14.70;99.90;;;;;;4939833;28;20207;-78
2021/10/21 09:00:56;;;;;;;9.80;9.20;;;14.70;99.90;;;;;;4968531;28;20218;-78
2021/10/21 09:03:54;;;;;;;10.10;9.30;;;14.80;99.90;;;;;;4951454;28;20581;-77
2021/10/21 09:09:02;;;;;;;9.93;9.30;;;14.70;99.90;;;;;;4962982;28;20229;-78
2021/10/21 09:11:29;;;;;;;9.00;8.47;;;14.70;99.90;;;;;;4970188;28;20284;-77
2021/10/21 09:14:09;;;;;;;10.00;9.20;;;14.60;99.90;;;;;;4976299;28;20193;-78
2021/10/21 09:16:36;;;;;;;9.90;9.10;;;14.60;99.90;;;;;;4962276;28;20254;-78
2021/10/21 09:19:09;;;;;;;9.20;8.60;;;14.60;99.90;;;;;;4966382;28;20201;-78
2021/10/21 09:21:38;;;;;;;9.30;8.60;;;14.50;99.90;;;;;;4969009;28;20218;-78
2021/10/21 09:24:26;;;;;;;8.77;8.07;;;14.40;99.90;;;;;;4949838;28;20210;-78
2021/10/21 09:27:07;;;;;;;9.13;8.40;;;14.30;99.90;;;;;;4966127;28;20219;-77
2021/10/21 09:29:36;;;;;;;8.53;8.00;;;14.20;99.90;;;;;;4966124;28;20198;-78
2021/10/21 09:32:05;;;;;;;8.67;7.97;;;14.10;99.90;;;;;;4964417;28;20735;-78
2021/10/21 09:34:41;;;;;;;8.70;8.20;;;14.00;99.90;;;;;;4965070;28;20192;-78
2021/10/21 09:37:11;;;;;;;8.97;8.37;;;14.00;99.90;;;;;;4951853;28;20198;-78
2021/10/21 09:39:44;;;;;;;8.50;8.00;;;14.00;99.90;;;;;;4965892;28;20261;-78
2021/10/21 09:42:11;;;;;;;8.90;8.40;;;13.80;99.90;;;;;;4964905;28;20294;-78
2021/10/21 09:44:38;;;;;;;9.40;8.80;;;13.70;99.90;;;;;;4968148;28;20202;-78
2021/10/21 09:47:22;;;;;;;9.30;8.60;;;13.50;99.90;;;;;;4948890;28;20222;-78
2021/10/21 09:49:56;;;;;;;8.77;8.27;;;13.40;99.90;;;;;;4964759;28;20672;-78
2021/10/21 09:52:25;;;;;;;8.73;8.00;;;13.50;99.90;;;;;;4967177;28;20304;-78
2021/10/21 09:54:53;;;;;;;8.10;7.67;;;13.40;99.90;;;;;;4965376;28;20193;-78
2021/10/21 09:57:28;;;;;;;8.30;7.80;;;13.30;99.90;;;;;;4950078;28;20209;-78
2021/10/21 10:00:04;;;;;;;8.43;7.90;;;13.30;99.90;;;;;;4950175;28;20201;-77
2021/10/21 10:02:39;;;;;;;7.80;7.20;;;13.30;99.90;;;;;;4963014;28;20285;-78
2021/10/21 10:05:14;;;;;;;7.53;7.03;;;13.30;99.90;;;;;;4965709;28;20555;-78
2021/10/21 10:07:41;;;;;;;7.80;7.30;;;13.30;99.90;;;;;;4968770;28;20193;-78
2021/10/21 10:10:09;;;;;;;8.77;8.20;;;13.20;99.90;;;;;;4949771;28;20284;-78
2021/10/21 10:12:36;;;;;;;8.00;7.50;;;13.00;99.90;;;;;;4965466;28;20209;-78
2021/10/21 10:15:04;;;;;;;8.20;7.70;;;12.90;99.90;;;;;;4963700;28;20199;-78
2021/10/21 10:17:31;;;;;;;7.97;7.47;;;12.90;99.90;;;;;;4946125;29;20197;-78
2021/10/21 10:19:58;;;;;;;7.73;7.33;;;12.80;99.90;;;;;;4962177;28;20203;-78
2021/10/21 10:22:32;;;;;;;8.30;7.70;;;12.80;99.90;;;;;;4953237;28;20230;-78
2021/10/21 10:24:59;;;;;;;8.70;8.13;;;12.80;99.90;;;;;;4963600;28;20202;-78
2021/10/21 10:27:29;;;;;;;8.90;8.20;;;12.90;99.90;;;;;;4967137;28;20221;-78
2021/10/21 10:29:58;;;;;;;8.40;7.90;;;13.10;99.90;;;;;;4962819;28;20187;-78
2021/10/21 10:32:38;;;;;;;8.10;7.60;;;13.10;99.90;;;;;;4966230;28;20210;-78
2021/10/21 10:35:07;;;;;;;8.30;7.80;;;13.20;99.90;;;;;;4966072;28;20202;-78
2021/10/21 10:37:57;;;;;;;8.33;7.77;;;13.20;99.90;;;;;;4964149;28;20206;-78
2021/10/21 10:40:36;;;;;;;8.43;7.93;;;13.30;99.90;;;;;;4965182;28;20248;-78
2021/10/21 10:43:04;;;;;;;8.30;7.80;;;13.50;99.90;;;;;;4963026;28;20205;-78
2021/10/21 10:45:42;;;;;;;8.97;8.30;;;13.60;99.90;;;;;;4970004;28;20690;-78
2021/10/21 10:48:10;;;;;;;8.60;8.00;;;13.70;99.90;;;;;;4967906;28;20280;-78
2021/10/21 10:50:54;;;;;;;8.07;7.67;;;13.70;99.90;;;;;;4964305;28;20232;-77
2021/10/21 10:53:44;;;;;;;8.00;7.50;;;13.70;99.90;;;;;;4949262;28;20222;-78
2021/10/21 10:56:26;;;;;;;8.37;7.67;;;13.80;99.90;;;;;;4962839;28;20253;-78
2021/10/21 10:59:15;;;;;;;7.53;7.10;;;13.90;99.90;;;;;;4964863;28;20737;-78
2021/10/21 11:01:41;;;;;;;7.87;7.30;;;13.90;99.90;;;;;;4964650;28;20218;-78
2021/10/21 11:04:09;;;;;;;7.60;7.10;;;13.90;99.90;;;;;;4965926;28;20202;-78
2021/10/21 11:06:35;;;;;;;7.80;7.40;;;14.10;99.90;;;;;;4962805;28;20222;-78
2021/10/21 11:09:06;;;;;;;7.40;7.00;;;14.10;99.90;;;;;;4947916;28;20209;-78
2021/10/21 11:11:48;;;;;;;7.83;7.43;;;14.10;99.90;;;;;;4968310;28;20224;-78
2021/10/21 11:14:17;;;;;;;7.80;7.33;;;14.10;99.90;;;;;;4972612;28;20209;-78
2021/10/21 11:16:46;;;;;;;7.97;7.57;;;14.10;99.90;;;;;;4948929;28;20202;-78
2021/10/21 11:19:34;;;;;;;8.50;7.90;;;14.10;99.90;;;;;;4965290;28;20196;-78
2021/10/21 11:22:03;;;;;;;8.10;7.70;;;14.10;99.90;;;;;;4962091;28;20309;-77
2021/10/21 11:25:02;;;;;;;8.60;7.90;;;14.00;99.90;;;;;;4945375;28;20226;-78
2021/10/21 11:27:33;;;;;;;8.37;7.87;;;13.90;99.90;;;;;;4931451;28;20710;-78
2021/10/21 11:30:09;;;;;;;7.80;7.30;;;13.90;99.90;;;;;;4962845;28;20204;-78
2021/10/21 11:32:38;;;;;;;8.20;7.70;;;13.80;99.90;;;;;;4961715;28;20198;-78
2021/10/21 11:35:08;;;;;;;8.40;7.80;;;13.70;99.90;;;;;;4965068;28;20252;-78
2021/10/21 11:37:43;;;;;;;8.10;7.60;;;13.70;99.90;;;;;;4955467;28;20620;-78
2021/10/21 11:40:14;;;;;;;7.90;7.50;;;13.70;99.90;;;;;;4959239;28;20202;-77
2021/10/21 11:42:41;;;;;;;8.80;8.10;;;13.70;99.90;;;;;;4968800;28;20228;-78
2021/10/21 11:45:10;;;;;;;10.53;8.80;;;13.70;99.90;;;;;;4967799;28;20233;-77
2021/10/21 11:47:38;;;;;;;9.60;7.97;;;13.70;99.90;;;;;;4965051;28;20224;-78
2021/10/21 11:50:06;;;;;;;8.43;7.83;;;13.90;99.90;;;;;;4967807;28;20565;-78
2021/10/21 11:52:39;;;;;;;8.00;7.60;;;14.00;99.90;;;;;;4963969;28;20193;-78
2021/10/21 11:55:06;;;;;;;8.50;7.90;;;14.20;99.90;;;;;;4961832;28;20500;-78
2021/10/21 11:57:34;;;;;;;8.10;7.60;;;14.40;99.90;;;;;;4963766;28;20190;-78
2021/10/21 12:00:16;;;;;;;7.93;7.43;;;14.50;99.90;;;;;;4959157;28;20198;-78
2021/10/21 12:02:43;;;;;;;7.80;7.30;;;14.60;99.90;;;;;;4958423;28;20203;-78
2021/10/21 12:05:10;;;;;;;8.20;7.60;;;14.70;99.90;;;;;;4949729;28;20610;-78
2021/10/21 12:07:38;;;;;;;8.07;7.47;;;14.70;99.90;;;;;;4963529;28;20223;-77
2021/10/21 12:10:06;;;;;;;8.30;7.60;;;14.70;99.90;;;;;;4962334;28;20200;-78
2021/10/21 12:12:38;;;;;;;8.17;7.60;;;14.60;99.90;;;;;;4964091;28;20213;-78
2021/10/21 12:15:08;;;;;;;8.20;7.60;;;14.50;99.90;;;;;;4963612;28;20390;-78
2021/10/21 12:17:35;;;;;;;7.80;7.40;;;14.50;99.90;;;;;;4944505;28;20211;-78
2021/10/21 12:20:02;;;;;;;8.27;7.73;;;14.50;99.90;;;;;;4965730;28;20196;-78
2021/10/21 12:22:32;;;;;;;8.60;8.00;;;14.70;99.90;;;;;;4967418;28;20261;-78
2021/10/21 12:25:00;;;;;;;8.20;7.50;;;14.90;99.90;;;;;;4964742;28;20685;-78
2021/10/21 12:27:28;;;;;;;8.10;7.50;;;15.10;99.90;;;;;;4964296;28;20222;-78
2021/10/21 12:30:01;;;;;;;8.30;7.57;;;15.10;99.90;;;;;;4964461;28;20203;-78
2021/10/21 12:32:28;;;;;;;8.37;7.77;;;15.10;99.90;;;;;;4961614;28;20270;-78
2021/10/21 12:35:05;;;;;;;8.30;7.70;;;15.00;99.90;;;;;;4962198;28;20217;-78
2021/10/21 12:37:39;;;;;;;7.80;7.30;;;14.90;99.90;;;;;;4962403;28;20232;-78
2021/10/21 12:40:20;;;;;;;8.00;7.40;;;14.90;99.90;;;;;;4965207;28;20212;-78
2021/10/21 12:42:47;;;;;;;7.60;7.20;;;15.10;99.90;;;;;;4969665;28;20196;-80
2021/10/21 12:45:21;;;;;;;7.37;6.97;;;15.10;99.90;;;;;;4970202;28;20204;-78
2021/10/21 12:47:48;;;;;;;7.70;7.10;;;15.20;99.90;;;;;;4963953;28;20219;-78
2021/10/21 12:50:16;;;;;;;8.00;7.50;;;15.00;99.90;;;;;;4964334;28;20252;-78
2021/10/21 12:52:44;;;;;;;8.17;7.57;;;14.90;99.90;;;;;;4963626;28;20203;-78